Time;durP1;ratioP1;P1;durP2;ratioP2;P2;SDS_P1;SDS_P2;PMS_P1;PMS_P2;Temp;Humidity;BMP_temperature;BMP_pressure;BME280_temperature;BME280_humidity;BME280_pressure;Samples;Min_cycle;Max_cycle;Signal;HPM_P1;HPM_P2
2023/09/04 00:02:56;;;;;;;9.18;5.78;;;;;;;;;;10215415;29;20091;-90
2023/09/04 00:07:57;;;;;;;7.43;5.72;;;;;;;;;;10208144;29;20039;-87
2023/09/04 00:12:58;;;;;;;8.20;6.13;;;;;;;;;;10228145;29;20835;-90
2023/09/04 00:17:59;;;;;;;6.03;5.15;;;;;;;;;;10208469;29;20094;-91
2023/09/04 00:23:00;;;;;;;8.15;5.63;;;;;;;;;;10200681;29;20048;-92
2023/09/04 00:28:02;;;;;;;8.45;5.70;;;;;;;;;;10216535;29;20118;-89
2023/09/04 00:33:04;;;;;;;8.25;5.47;;;;;;;;;;10198299;29;20118;-88
2023/09/04 00:38:05;;;;;;;8.50;5.95;;;;;;;;;;10202349;29;20043;-90
2023/09/04 00:43:06;;;;;;;8.43;6.03;;;;;;;;;;10221423;29;20067;-88
2023/09/04 00:48:07;;;;;;;7.88;5.03;;;;;;;;;;10218684;29;20134;-88
2023/09/04 00:53:09;;;;;;;7.55;5.78;;;;;;;;;;10209251;29;20118;-87
2023/09/04 00:58:10;;;;;;;9.52;5.50;;;;;;;;;;10231482;29;20393;-88
2023/09/04 01:03:13;;;;;;;9.77;5.07;;;;;;;;;;10202908;29;20480;-88
2023/09/04 01:08:14;;;;;;;6.30;5.20;;;;;;;;;;10202564;29;20608;-88
2023/09/04 01:13:25;;;;;;;7.55;5.13;;;;;;;;;;10206172;29;20494;-87
2023/09/04 01:18:27;;;;;;;6.40;5.10;;;;;;;;;;10219340;28;20043;-88
2023/09/04 01:23:28;;;;;;;6.45;5.07;;;;;;;;;;10199678;29;20036;-87
2023/09/04 01:28:39;;;;;;;8.07;5.07;;;;;;;;;;10213694;29;20031;-87
2023/09/04 01:33:41;;;;;;;7.35;5.00;;;;;;;;;;10213384;29;20376;-87
2023/09/04 01:38:45;;;;;;;8.10;4.90;;;;;;;;;;10205810;29;20576;-89
2023/09/04 01:43:46;;;;;;;6.63;4.78;;;;;;;;;;10208107;29;20039;-91
2023/09/04 01:48:51;;;;;;;7.40;5.15;;;;;;;;;;10200888;29;20059;-91
2023/09/04 01:53:52;;;;;;;8.67;4.70;;;;;;;;;;10200529;29;20440;-87
2023/09/04 01:58:53;;;;;;;7.63;4.80;;;;;;;;;;10195408;29;20054;-91
2023/09/04 02:03:58;;;;;;;8.23;4.70;;;;;;;;;;10190418;29;20036;-89
2023/09/04 02:08:59;;;;;;;7.40;4.85;;;;;;;;;;10194364;29;20032;-89
2023/09/04 02:14:00;;;;;;;8.88;5.10;;;;;;;;;;10205994;29;20403;-90
2023/09/04 02:19:01;;;;;;;4.47;3.85;;;;;;;;;;10212836;29;20501;-87
2023/09/04 02:24:02;;;;;;;6.00;4.55;;;;;;;;;;10206297;29;20037;-87
2023/09/04 02:29:03;;;;;;;7.25;4.50;;;;;;;;;;10194108;29;20058;-88
2023/09/04 02:34:04;;;;;;;5.75;4.47;;;;;;;;;;10195679;29;20051;-88
2023/09/04 02:39:05;;;;;;;4.72;3.75;;;;;;;;;;10199948;29;20126;-87
2023/09/04 02:44:06;;;;;;;4.70;4.13;;;;;;;;;;10212321;29;20059;-89
2023/09/04 02:49:07;;;;;;;8.38;5.72;;;;;;;;;;10207781;29;20194;-87
2023/09/04 02:54:08;;;;;;;7.55;4.20;;;;;;;;;;10196628;29;20031;-90
2023/09/04 02:59:10;;;;;;;10.00;4.30;;;;;;;;;;10192100;29;20040;-87
2023/09/04 03:04:11;;;;;;;5.97;4.93;;;;;;;;;;10198792;29;20035;-92
2023/09/04 03:09:15;;;;;;;8.05;4.75;;;;;;;;;;10199571;29;20122;-87
2023/09/04 03:14:16;;;;;;;7.03;4.47;;;;;;;;;;10200362;29;20043;-88
2023/09/04 03:19:17;;;;;;;7.78;5.20;;;;;;;;;;10196694;29;20043;-87
2023/09/04 03:24:20;;;;;;;9.13;4.82;;;;;;;;;;10190467;29;20027;-91
2023/09/04 03:29:21;;;;;;;6.93;4.50;;;;;;;;;;10216597;29;20120;-89
2023/09/04 03:34:22;;;;;;;4.88;3.75;;;;;;;;;;10204598;29;20051;-86
2023/09/04 03:39:23;;;;;;;7.00;4.78;;;;;;;;;;10212787;29;20040;-87
2023/09/04 03:44:26;;;;;;;7.43;4.53;;;;;;;;;;10207914;29;20035;-84
2023/09/04 03:49:27;;;;;;;6.82;4.50;;;;;;;;;;10211996;28;20056;-88
2023/09/04 03:54:29;;;;;;;9.10;4.57;;;;;;;;;;10204911;29;20123;-89
2023/09/04 03:59:30;;;;;;;8.63;4.82;;;;;;;;;;10205418;29;20102;-87
2023/09/04 04:04:31;;;;;;;8.95;4.97;;;;;;;;;;10195022;29;20074;-86
2023/09/04 04:09:32;;;;;;;7.28;4.50;;;;;;;;;;10227273;28;20093;-88
2023/09/04 04:14:33;;;;;;;8.80;5.05;;;;;;;;;;10211443;29;20034;-89
2023/09/04 04:19:35;;;;;;;10.32;4.65;;;;;;;;;;10207822;29;20054;-87
2023/09/04 04:24:36;;;;;;;7.88;5.10;;;;;;;;;;10194933;29;20126;-89
2023/09/04 04:29:38;;;;;;;7.32;4.03;;;;;;;;;;10203745;29;20046;-87
2023/09/04 04:34:41;;;;;;;6.95;4.20;;;;;;;;;;10213836;29;20043;-86
2023/09/04 04:39:42;;;;;;;9.98;4.35;;;;;;;;;;10213936;29;20126;-88
2023/09/04 04:44:43;;;;;;;7.90;4.95;;;;;;;;;;10205886;29;20028;-88
2023/09/04 04:49:44;;;;;;;7.63;4.03;;;;;;;;;;10217665;29;20146;-86
2023/09/04 04:54:45;;;;;;;8.40;4.35;;;;;;;;;;10216989;29;20057;-87
2023/09/04 04:59:46;;;;;;;7.22;4.32;;;;;;;;;;10215942;29;20046;-87
2023/09/04 05:04:48;;;;;;;7.53;4.20;;;;;;;;;;10240754;29;20114;-86
2023/09/04 05:09:52;;;;;;;5.78;3.72;;;;;;;;;;10243357;28;20499;-88
2023/09/04 05:14:54;;;;;;;8.38;4.43;;;;;;;;;;10243447;28;20019;-88
2023/09/04 05:19:55;;;;;;;5.20;3.65;;;;;;;;;;10239849;29;20701;-89
2023/09/04 05:24:56;;;;;;;9.32;4.30;;;;;;;;;;10198889;29;20033;-89
2023/09/04 05:29:58;;;;;;;5.93;3.85;;;;;;;;;;10242467;29;20405;-90
2023/09/04 05:34:59;;;;;;;7.85;3.78;;;;;;;;;;10243644;29;20443;-88
2023/09/04 05:40:00;;;;;;;6.47;4.10;;;;;;;;;;10241945;29;20045;-88
2023/09/04 05:45:01;;;;;;;7.50;3.90;;;;;;;;;;10222608;29;20055;-92
2023/09/04 05:50:03;;;;;;;7.57;3.80;;;;;;;;;;10200928;29;20056;-88
2023/09/04 05:55:04;;;;;;;5.30;3.65;;;;;;;;;;10200868;29;20032;-89
2023/09/04 06:00:07;;;;;;;6.18;3.15;;;;;;;;;;10200701;29;20027;-90
2023/09/04 06:05:08;;;;;;;5.53;3.47;;;;;;;;;;10196033;28;20039;-89
2023/09/04 06:10:10;;;;;;;8.32;3.30;;;;;;;;;;10203393;29;20566;-90
2023/09/04 06:15:11;;;;;;;3.22;2.70;;;;;;;;;;10214013;29;20051;-91
2023/09/04 06:20:12;;;;;;;6.05;3.33;;;;;;;;;;10208170;29;20139;-88
2023/09/04 06:25:13;;;;;;;4.57;3.05;;;;;;;;;;10210286;29;20490;-92
2023/09/04 06:30:14;;;;;;;4.13;2.80;;;;;;;;;;10199397;29;20031;-91
2023/09/04 06:35:15;;;;;;;7.20;2.88;;;;;;;;;;10199047;29;20046;-90
2023/09/04 06:40:16;;;;;;;5.63;2.90;;;;;;;;;;10205589;29;20057;-91
2023/09/04 06:45:18;;;;;;;3.63;2.47;;;;;;;;;;10197524;29;20031;-88
2023/09/04 06:50:19;;;;;;;4.85;2.80;;;;;;;;;;10223360;29;20542;-90
2023/09/04 06:55:20;;;;;;;5.60;2.85;;;;;;;;;;10213335;29;20027;-88
2023/09/04 07:00:21;;;;;;;4.78;2.78;;;;;;;;;;10212161;29;20068;-90
2023/09/04 07:05:23;;;;;;;3.53;2.42;;;;;;;;;;10205450;29;20081;-88
2023/09/04 07:10:24;;;;;;;5.70;2.50;;;;;;;;;;10228883;28;20023;-89
2023/09/04 07:15:25;;;;;;;9.10;3.08;;;;;;;;;;10238723;29;20032;-88
2023/09/04 07:20:29;;;;;;;6.05;2.50;;;;;;;;;;10238464;29;20587;-90
2023/09/04 07:25:32;;;;;;;5.03;2.50;;;;;;;;;;10238495;29;20090;-90
2023/09/04 07:30:33;;;;;;;4.03;2.15;;;;;;;;;;10238554;29;20058;-90
2023/09/04 07:35:34;;;;;;;2.47;1.60;;;;;;;;;;10239654;29;20038;-89
2023/09/04 07:40:35;;;;;;;3.53;1.60;;;;;;;;;;10237260;29;20053;-90
2023/09/04 07:45:36;;;;;;;3.53;2.00;;;;;;;;;;10238559;29;20042;-91
2023/09/04 07:50:37;;;;;;;2.95;1.70;;;;;;;;;;10238196;29;20051;-88
2023/09/04 07:55:39;;;;;;;3.10;2.20;;;;;;;;;;10204987;29;20028;-91
2023/09/04 08:00:45;;;;;;;6.72;1.90;;;;;;;;;;10211493;29;20054;-89
2023/09/04 08:05:46;;;;;;;4.75;2.33;;;;;;;;;;10239927;29;20494;-91
2023/09/04 08:10:50;;;;;;;4.18;2.20;;;;;;;;;;10240418;28;20140;-89
2023/09/04 08:15:51;;;;;;;2.95;2.00;;;;;;;;;;10238932;29;20035;-90
2023/09/04 08:20:53;;;;;;;2.60;1.67;;;;;;;;;;10243212;28;20039;-89
2023/09/04 08:26:00;;;;;;;5.47;2.20;;;;;;;;;;10249197;29;20030;-90
2023/09/04 08:31:01;;;;;;;4.13;2.13;;;;;;;;;;10247727;29;20034;-90
2023/09/04 08:36:05;;;;;;;3.67;2.10;;;;;;;;;;10232009;29;20054;-90
2023/09/04 08:46:50;;;;;;;3.55;2.00;;;;;;;;;;10214248;29;20039;-92
2023/09/04 08:57:46;;;;;;;5.95;2.10;;;;;;;;;;10216267;29;20436;-91
2023/09/04 09:02:54;;;;;;;3.10;2.15;;;;;;;;;;10201008;29;20043;-91
2023/09/04 09:19:17;;;;;;;2.60;1.88;;;;;;;;;;10225981;29;20392;-92
2023/09/04 09:29:57;;;;;;;4.38;1.88;;;;;;;;;;10242662;28;20035;-92
2023/09/04 09:35:02;;;;;;;3.15;1.88;;;;;;;;;;10234543;29;20060;-92
2023/09/04 09:40:08;;;;;;;4.05;1.70;;;;;;;;;;10200664;29;20059;-91
2023/09/04 09:51:00;;;;;;;4.38;2.03;;;;;;;;;;10216497;29;20051;-92
2023/09/04 10:07:10;;;;;;;4.68;1.75;;;;;;;;;;10217947;29;20475;-90
2023/09/04 10:12:36;;;;;;;4.63;1.75;;;;;;;;;;10247001;28;20049;-90
2023/09/04 10:17:41;;;;;;;4.20;2.00;;;;;;;;;;10187112;29;20456;-90
2023/09/04 10:22:50;;;;;;;3.72;1.42;;;;;;;;;;10203647;29;20040;-90
2023/09/04 10:27:56;;;;;;;3.40;1.65;;;;;;;;;;10212044;29;20031;-91
2023/09/04 10:33:06;;;;;;;2.50;1.88;;;;;;;;;;10199147;29;20039;-90
2023/09/04 10:38:11;;;;;;;3.50;1.88;;;;;;;;;;10204509;29;20046;-90
2023/09/04 10:43:12;;;;;;;4.37;2.00;;;;;;;;;;10198581;29;20032;-90
2023/09/04 10:48:13;;;;;;;3.05;2.03;;;;;;;;;;10190581;29;20094;-90
2023/09/04 10:53:31;;;;;;;8.85;2.08;;;;;;;;;;10192172;29;20035;-90
2023/09/04 10:58:52;;;;;;;4.53;2.20;;;;;;;;;;10208068;28;20036;-91
2023/09/04 11:03:56;;;;;;;4.97;1.92;;;;;;;;;;10199305;29;20050;-90
2023/09/04 11:09:00;;;;;;;5.20;1.50;;;;;;;;;;10208346;28;20027;-89
2023/09/04 11:14:11;;;;;;;2.38;1.52;;;;;;;;;;10199269;29;20048;-92
2023/09/04 11:19:16;;;;;;;2.33;1.70;;;;;;;;;;10199646;29;20043;-91
2023/09/04 11:24:19;;;;;;;2.55;1.75;;;;;;;;;;10196333;29;20039;-91
2023/09/04 11:29:20;;;;;;;4.38;2.00;;;;;;;;;;10198207;29;20604;-92
2023/09/04 11:34:21;;;;;;;4.72;2.22;;;;;;;;;;10207522;29;20034;-92
2023/09/04 11:39:22;;;;;;;2.83;1.98;;;;;;;;;;10205153;29;20491;-91
2023/09/04 11:44:24;;;;;;;2.83;1.75;;;;;;;;;;10219783;29;20388;-91
2023/09/04 11:49:25;;;;;;;7.63;2.65;;;;;;;;;;10215349;29;20672;-93
2023/09/04 11:54:36;;;;;;;4.40;2.28;;;;;;;;;;10194462;29;20039;-91
2023/09/04 11:59:38;;;;;;;2.90;2.03;;;;;;;;;;10205823;29;20137;-92
2023/09/04 12:04:39;;;;;;;5.32;2.30;;;;;;;;;;10218582;29;20126;-90
2023/09/04 12:09:41;;;;;;;5.70;2.38;;;;;;;;;;10214169;29;20421;-93
2023/09/04 12:14:45;;;;;;;3.33;2.25;;;;;;;;;;10206029;29;20038;-90
2023/09/04 12:19:46;;;;;;;4.30;2.30;;;;;;;;;;10217399;29;20081;-92
2023/09/04 12:25:23;;;;;;;3.53;1.80;;;;;;;;;;10245016;29;20487;-89
2023/09/04 12:30:24;;;;;;;4.95;2.20;;;;;;;;;;10157243;28;20055;-92
2023/09/04 12:35:25;;;;;;;3.70;2.30;;;;;;;;;;10245181;29;20066;-91
2023/09/04 12:40:26;;;;;;;3.58;2.00;;;;;;;;;;10236879;29;20067;-90
2023/09/04 12:45:28;;;;;;;4.53;2.60;;;;;;;;;;10209142;29;20040;-90
2023/09/04 12:50:29;;;;;;;3.05;2.65;;;;;;;;;;10193836;29;20051;-91
2023/09/04 12:56:05;;;;;;;3.35;1.90;;;;;;;;;;10209290;29;20547;-89
2023/09/04 13:01:44;;;;;;;3.78;2.28;;;;;;;;;;10184741;29;20047;-91
2023/09/04 13:06:45;;;;;;;4.97;2.63;;;;;;;;;;10186286;29;20086;-90
2023/09/04 13:11:46;;;;;;;3.22;2.33;;;;;;;;;;10215494;29;20339;-91
2023/09/04 13:22:18;;;;;;;2.88;2.03;;;;;;;;;;10202734;29;20048;-91
2023/09/04 13:27:20;;;;;;;4.22;2.70;;;;;;;;;;10213029;28;20126;-90
2023/09/04 13:32:21;;;;;;;4.30;2.45;;;;;;;;;;10213017;29;20036;-90
2023/09/04 13:37:22;;;;;;;5.25;3.03;;;;;;;;;;10199750;29;20556;-90
2023/09/04 13:42:24;;;;;;;3.90;2.50;;;;;;;;;;10196695;29;20043;-90
2023/09/04 13:47:26;;;;;;;4.63;2.38;;;;;;;;;;10198939;29;20162;-88
2023/09/04 13:52:27;;;;;;;4.45;2.63;;;;;;;;;;10219440;29;20366;-90
2023/09/04 13:57:28;;;;;;;5.72;2.70;;;;;;;;;;10193490;29;20047;-89
2023/09/04 14:02:29;;;;;;;6.85;3.08;;;;;;;;;;10205393;29;20036;-90
2023/09/04 14:07:30;;;;;;;6.80;2.78;;;;;;;;;;10204154;29;20075;-87
2023/09/04 14:12:35;;;;;;;6.72;3.00;;;;;;;;;;10198145;29;20031;-93
2023/09/04 14:17:39;;;;;;;4.10;2.33;;;;;;;;;;10210989;28;20587;-91
2023/09/04 14:23:12;;;;;;;4.38;2.58;;;;;;;;;;10194259;29;20649;-92
2023/09/04 14:28:46;;;;;;;4.07;2.50;;;;;;;;;;10215290;29;20042;-91
2023/09/04 14:34:08;;;;;;;8.05;2.80;;;;;;;;;;10079773;29;20599;-91
2023/09/04 14:39:20;;;;;;;5.72;2.70;;;;;;;;;;10070151;29;20053;-90
2023/09/04 14:44:36;;;;;;;4.32;2.42;;;;;;;;;;10201895;28;20540;-90
2023/09/04 15:00:50;;;;;;;3.88;2.33;;;;;;;;;;10036820;29;20090;-92
2023/09/04 15:05:58;;;;;;;5.60;2.55;;;;;;;;;;10160269;29;20570;-92
2023/09/04 15:16:49;;;;;;;3.80;2.42;;;;;;;;;;10225432;29;20039;-91
2023/09/04 15:39:15;;;;;;;4.40;2.20;;;;;;;;;;10236253;29;20484;-92
2023/09/04 15:44:23;;;;;;;5.03;2.47;;;;;;;;;;10218738;29;20146;-91
2023/09/04 15:50:10;;;;;;;3.80;2.05;;;;;;;;;;10210746;29;20063;-93
2023/09/04 15:55:17;;;;;;;3.47;2.53;;;;;;;;;;10214988;29;20040;-91
2023/09/04 16:06:07;;;;;;;5.28;2.53;;;;;;;;;;10208082;29;20074;-92
2023/09/04 16:11:11;;;;;;;6.30;2.97;;;;;;;;;;10206222;29;20055;-93
2023/09/04 16:16:24;;;;;;;7.75;4.07;;;;;;;;;;10204157;29;20063;-91
2023/09/04 16:32:51;;;;;;;4.55;2.53;;;;;;;;;;10150938;29;20047;-90
2023/09/04 16:38:35;;;;;;;4.40;2.88;;;;;;;;;;10181606;28;20047;-91
2023/09/04 16:43:39;;;;;;;3.88;2.83;;;;;;;;;;10193540;29;20035;-90
2023/09/04 16:54:43;;;;;;;4.15;3.00;;;;;;;;;;10188642;29;20055;-91
2023/09/04 17:05:14;;;;;;;6.35;3.40;;;;;;;;;;10184508;29;19921;-89
2023/09/04 17:10:26;;;;;;;7.85;3.45;;;;;;;;;;10214180;29;20192;-91
2023/09/04 17:15:28;;;;;;;6.07;3.15;;;;;;;;;;10198313;29;20028;-89
2023/09/04 17:20:30;;;;;;;5.32;3.15;;;;;;;;;;10207305;29;20079;-91
2023/09/04 17:25:38;;;;;;;7.30;3.60;;;;;;;;;;10232170;29;20035;-90
2023/09/04 17:31:02;;;;;;;6.68;3.53;;;;;;;;;;10178373;29;20097;-91
2023/09/04 17:36:33;;;;;;;5.38;3.33;;;;;;;;;;10216263;28;20039;-90
2023/09/04 17:41:55;;;;;;;4.20;3.25;;;;;;;;;;10196581;29;20041;-90
2023/09/04 17:46:56;;;;;;;7.30;3.78;;;;;;;;;;10190210;29;20036;-91
2023/09/04 17:51:59;;;;;;;6.40;3.67;;;;;;;;;;10200286;29;20087;-91
2023/09/04 17:57:04;;;;;;;7.18;4.38;;;;;;;;;;10196145;29;20031;-91
2023/09/04 18:02:05;;;;;;;5.63;3.88;;;;;;;;;;10198854;29;20937;-90
2023/09/04 18:12:46;;;;;;;6.55;4.05;;;;;;;;;;10201660;29;20032;-91
2023/09/04 18:17:50;;;;;;;5.68;4.00;;;;;;;;;;10200856;29;20059;-90
2023/09/04 18:22:51;;;;;;;10.13;3.90;;;;;;;;;;10195494;29;20040;-89
2023/09/04 18:27:55;;;;;;;7.40;4.43;;;;;;;;;;10191070;29;20024;-91
2023/09/04 18:33:02;;;;;;;6.38;4.55;;;;;;;;;;10189180;29;20039;-91
2023/09/04 18:38:03;;;;;;;9.52;4.78;;;;;;;;;;10202589;29;20400;-90
2023/09/04 18:43:04;;;;;;;10.00;4.80;;;;;;;;;;10195651;29;20102;-91
2023/09/04 18:48:07;;;;;;;7.47;4.55;;;;;;;;;;10194496;29;20032;-90
2023/09/04 18:53:11;;;;;;;9.95;5.05;;;;;;;;;;10201974;29;20052;-90
2023/09/04 18:58:12;;;;;;;7.50;5.00;;;;;;;;;;10210020;29;20036;-89
2023/09/04 19:03:22;;;;;;;9.25;4.70;;;;;;;;;;10207387;29;20075;-90
2023/09/04 19:08:37;;;;;;;9.63;5.25;;;;;;;;;;10196123;29;20087;-92
2023/09/04 19:14:07;;;;;;;7.90;4.83;;;;;;;;;;10202678;29;20040;-90
2023/09/04 19:19:07;;;;;;;9.18;4.60;;;;;;;;;;10179850;29;20035;-91
2023/09/04 19:24:11;;;;;;;7.40;5.30;;;;;;;;;;10202967;29;20504;-93
2023/09/04 19:29:13;;;;;;;7.30;5.25;;;;;;;;;;10201579;29;20035;-93
2023/09/04 19:34:14;;;;;;;6.85;4.60;;;;;;;;;;10213568;29;20042;-90
2023/09/04 19:39:15;;;;;;;8.00;5.35;;;;;;;;;;10204406;29;20150;-92
2023/09/04 19:44:16;;;;;;;9.10;5.43;;;;;;;;;;10215508;28;20044;-92
2023/09/04 19:49:18;;;;;;;12.02;6.15;;;;;;;;;;10215150;29;20485;-93
2023/09/04 19:54:19;;;;;;;9.10;5.28;;;;;;;;;;10234840;29;20047;-92
2023/09/04 19:59:24;;;;;;;9.07;5.78;;;;;;;;;;10234732;29;20545;-92
2023/09/04 20:04:25;;;;;;;10.52;5.88;;;;;;;;;;10212308;29;20056;-92
2023/09/04 20:09:26;;;;;;;9.48;5.55;;;;;;;;;;10226816;28;20045;-92
2023/09/04 20:14:27;;;;;;;8.57;5.75;;;;;;;;;;10200509;28;20035;-92
2023/09/04 20:19:28;;;;;;;9.52;5.88;;;;;;;;;;10204964;29;20039;-92
2023/09/04 20:24:29;;;;;;;9.32;5.97;;;;;;;;;;10207185;29;20049;-91
2023/09/04 20:29:30;;;;;;;12.85;6.22;;;;;;;;;;10238559;29;20782;-92
2023/09/04 20:34:31;;;;;;;8.90;5.97;;;;;;;;;;10225111;29;20089;-92
2023/09/04 20:39:33;;;;;;;9.88;6.22;;;;;;;;;;10248579;29;20522;-93
2023/09/04 20:44:34;;;;;;;9.85;5.93;;;;;;;;;;10223445;29;20070;-93
2023/09/04 20:49:39;;;;;;;13.82;7.28;;;;;;;;;;10216274;29;20042;-92
2023/09/04 20:54:40;;;;;;;9.73;6.13;;;;;;;;;;10250077;29;20423;-93
2023/09/04 20:59:41;;;;;;;12.18;6.63;;;;;;;;;;10247095;29;20062;-93
2023/09/04 21:04:42;;;;;;;11.27;6.72;;;;;;;;;;10227204;29;20040;-91
2023/09/04 23:23:08;;;;;;;11.50;7.05;;;;;;;;;;10189419;29;20504;-90
2023/09/04 23:28:09;;;;;;;9.10;6.63;;;;;;;;;;10219714;29;20053;-92
2023/09/04 23:33:15;;;;;;;15.43;7.95;;;;;;;;;;10211855;29;20416;-90
2023/09/04 23:38:28;;;;;;;13.18;7.47;;;;;;;;;;10217940;28;20743;-90
2023/09/04 23:48:58;;;;;;;10.95;7.38;;;;;;;;;;10231690;29;20039;-88
2023/09/04 23:53:59;;;;;;;12.05;7.78;;;;;;;;;;10212837;29;20052;-90
2023/09/04 23:59:02;;;;;;;10.43;6.88;;;;;;;;;;10222971;29;20121;-89
